4A9

Isbell Field Airport

Fort Payne, Alabama, USA
METAR K4A9 170435Z AUTO 00000KT 5SM BR CLR 01/00 A3018 RMK AO2 T00050004
Observed Flight Rules
Nov-17 @ 04:35 UTC (35 minutes ago) Marginal Visual Flight Rules
Visibility Clouds Conditions
5 miles
  • Clear skies
  • Mist
Temperatures Readings
Current 1°C / 34°F
Dewpoint 0°C / 32°F
Humidity 93%
Altimeter 30.18" Hg
Pressure 1022 hPa
Elevation 267
METAR K4A9 170435Z AUTO 00000KT 5SM BR CLR 01/00 A3018 RMK AO2 T00050004
Observed Flight Rules
Nov-17 @ 04:35 UTC
(35 minutes ago)
MVFR
Clouds
  • Clear skies
Conditions
  • Mist
Temperature Dewpoint
1°C / 34°F 0°C / 32°F
Humidity Altimeter Pressure
93% 30.18" Hg 1022 hPa